Time;durP1;ratioP1;P1;durP2;ratioP2;P2;SDS_P1;SDS_P2;PMS_P1;PMS_P2;Temp;Humidity;BMP_temperature;BMP_pressure;BME280_temperature;BME280_humidity;BME280_pressure;Samples;Min_cycle;Max_cycle;Signal;HPM_P1;HPM_P2
2022/07/23 00:00:29;;;;;;;4.85;2.25;;;;;;;12.67;100.00;102096.81;5088633;28;20028;-87
2022/07/23 00:02:55;;;;;;;4.15;1.80;;;;;;;12.74;100.00;102093.66;5090066;28;20404;-86
2022/07/23 00:05:20;;;;;;;6.22;1.98;;;;;;;12.80;100.00;102082.50;5090051;28;20032;-86
2022/07/23 00:07:45;;;;;;;2.40;1.60;;;;;;;12.86;100.00;102076.66;5089065;28;20020;-87
2022/07/23 00:10:11;;;;;;;2.13;1.70;;;;;;;12.92;100.00;102067.28;5093252;28;20446;-86
2022/07/23 00:12:37;;;;;;;3.97;1.90;;;;;;;12.95;100.00;102062.53;5093434;28;20102;-88
2022/07/23 00:15:05;;;;;;;4.38;1.73;;;;;;;12.97;100.00;102063.28;5093447;28;20047;-88
2022/07/23 00:17:30;;;;;;;3.17;2.00;;;;;;;12.97;100.00;102049.94;5091979;28;20024;-87
2022/07/23 00:19:55;;;;;;;3.08;1.60;;;;;;;12.98;100.00;102056.94;5092311;28;20391;-87
2022/07/23 00:22:21;;;;;;;4.53;1.80;;;;;;;12.95;100.00;102064.38;5093591;28;20389;-88
2022/07/23 00:24:46;;;;;;;3.50;1.90;;;;;;;12.87;100.00;102052.47;5074782;28;20036;-88
2022/07/23 00:27:12;;;;;;;2.55;1.60;;;;;;;12.80;100.00;102050.44;5093130;28;20114;-88
2022/07/23 00:29:37;;;;;;;3.30;2.03;;;;;;;12.69;100.00;102054.81;5093379;28;20069;-88
2022/07/23 00:32:03;;;;;;;2.45;2.08;;;;;;;12.62;100.00;102056.28;5091907;28;20096;-87
2022/07/23 00:34:28;;;;;;;5.00;2.00;;;;;;;12.56;100.00;102059.44;5093556;28;20043;-88
2022/07/23 00:36:54;;;;;;;3.75;2.25;;;;;;;12.52;100.00;102049.97;5092374;28;20450;-87
2022/07/23 00:39:21;;;;;;;3.42;1.90;;;;;;;12.47;100.00;102060.19;5094109;28;20032;-87
2022/07/23 00:41:47;;;;;;;3.83;2.13;;;;;;;12.41;100.00;102047.31;5094219;28;20035;-87
2022/07/23 00:44:21;;;;;;;4.07;2.20;;;;;;;12.37;100.00;102049.38;5093993;28;20028;-87
2022/07/23 00:46:49;;;;;;;4.53;2.20;;;;;;;12.32;100.00;102046.22;5093946;28;20032;-87
2022/07/23 00:49:15;;;;;;;5.45;2.05;;;;;;;12.28;100.00;102055.44;5094323;28;20058;-88
2022/07/23 00:51:41;;;;;;;5.28;2.10;;;;;;;12.24;100.00;102048.63;5093200;28;20038;-88
2022/07/23 00:54:07;;;;;;;5.13;2.38;;;;;;;12.20;100.00;102047.22;5093954;28;20326;-87
2022/07/23 00:56:33;;;;;;;3.17;2.08;;;;;;;12.16;100.00;102050.09;5091564;28;20479;-87
2022/07/23 00:59:00;;;;;;;4.90;2.22;;;;;;;12.10;100.00;102047.91;5093232;28;20069;-88
2022/07/23 01:01:26;;;;;;;5.90;2.50;;;;;;;12.10;100.00;102050.56;5093635;28;20454;-87
2022/07/23 01:03:52;;;;;;;8.73;2.80;;;;;;;12.10;100.00;102045.22;5093732;28;20181;-87
2022/07/23 01:06:17;;;;;;;6.30;3.13;;;;;;;12.10;100.00;102047.06;5093976;28;20414;-87
2022/07/23 01:08:42;;;;;;;5.63;2.90;;;;;;;12.11;100.00;102043.44;5092849;28;20418;-87
2022/07/23 01:11:08;;;;;;;2.88;2.58;;;;;;;12.16;100.00;102039.41;5094705;28;20170;-87
2022/07/23 01:13:34;;;;;;;4.75;3.10;;;;;;;12.17;100.00;102043.78;5095024;28;20035;-87
2022/07/23 01:16:00;;;;;;;6.60;2.78;;;;;;;12.16;100.00;102051.91;5093560;28;20036;-88
2022/07/23 01:18:25;;;;;;;4.65;3.10;;;;;;;12.16;100.00;102047.41;5093783;28;20414;-87
2022/07/23 01:20:50;;;;;;;4.40;3.45;;;;;;;12.14;100.00;102049.38;5092802;28;20094;-86
2022/07/23 01:23:16;;;;;;;8.23;3.42;;;;;;;12.09;100.00;102042.69;5092830;28;20115;-87
2022/07/23 01:25:54;;;;;;;4.55;3.50;;;;;;;12.04;100.00;102037.72;5091213;28;20031;-88
2022/07/23 01:28:21;;;;;;;4.35;2.97;;;;;;;11.97;100.00;102042.69;5091651;28;20195;-89
2022/07/23 01:30:47;;;;;;;3.50;3.00;;;;;;;11.89;100.00;102050.38;5091415;28;20032;-88
2022/07/23 01:33:13;;;;;;;4.05;2.80;;;;;;;11.82;100.00;102035.81;5092626;28;20104;-88
2022/07/23 01:35:39;;;;;;;4.90;2.90;;;;;;;11.74;100.00;102036.41;5092484;28;20110;-86
2022/07/23 01:38:04;;;;;;;4.90;3.35;;;;;;;11.68;100.00;102028.03;5092182;28;20333;-87
2022/07/23 01:40:30;;;;;;;7.07;3.60;;;;;;;11.65;100.00;102043.28;5091789;28;20393;-86
2022/07/23 01:42:55;;;;;;;9.98;4.13;;;;;;;11.59;100.00;102040.25;5091641;28;20032;-88
2022/07/23 01:45:21;;;;;;;5.68;3.42;;;;;;;11.51;100.00;102043.50;5092009;28;20139;-87
2022/07/23 01:47:48;;;;;;;4.35;3.42;;;;;;;11.48;100.00;102041.06;5097100;28;20040;-87
2022/07/23 01:50:14;;;;;;;4.60;2.97;;;;;;;11.42;100.00;102044.19;5097010;28;20469;-88
2022/07/23 01:52:39;;;;;;;5.47;2.92;;;;;;;11.35;100.00;102049.13;5098763;28;20079;-87
2022/07/23 01:55:06;;;;;;;6.25;3.40;;;;;;;11.34;100.00;102047.41;5099016;28;20031;-87
2022/07/23 01:57:32;;;;;;;3.92;2.78;;;;;;;11.30;100.00;102048.63;5096929;28;20414;-87
2022/07/23 01:59:57;;;;;;;4.47;3.38;;;;;;;11.25;100.00;102035.63;5097680;28;20043;-87
2022/07/23 02:02:23;;;;;;;4.45;2.90;;;;;;;11.25;100.00;102032.13;5094393;28;20334;-86
2022/07/23 02:04:49;;;;;;;7.50;3.83;;;;;;;11.24;100.00;102038.41;5090413;28;20100;-89
2022/07/23 02:07:14;;;;;;;5.43;3.72;;;;;;;11.27;100.00;102027.53;5073584;28;20035;-87
2022/07/23 02:09:39;;;;;;;6.43;3.55;;;;;;;11.24;100.00;102025.97;5091373;28;20136;-87
2022/07/23 02:12:05;;;;;;;8.00;3.83;;;;;;;11.21;100.00;102034.19;5092299;28;20136;-86
2022/07/23 02:14:31;;;;;;;6.03;3.83;;;;;;;11.17;100.00;102032.69;5092633;28;20109;-88
2022/07/23 02:17:13;;;;;;;7.57;4.10;;;;;;;11.17;100.00;102038.03;5093917;28;20104;-86
2022/07/23 02:19:39;;;;;;;4.75;3.50;;;;;;;11.13;100.00;102035.72;5091920;28;20032;-87
2022/07/23 02:22:04;;;;;;;3.03;2.80;;;;;;;11.10;100.00;102044.75;5091249;28;20357;-89
2022/07/23 02:24:29;;;;;;;7.32;3.60;;;;;;;11.08;100.00;102036.88;5091249;28;20066;-87
2022/07/23 02:26:55;;;;;;;4.10;3.40;;;;;;;11.11;100.00;102033.16;5091362;28;20028;-87
2022/07/23 02:29:20;;;;;;;5.53;3.55;;;;;;;11.14;100.00;102040.06;5091098;28;20020;-87
2022/07/23 02:31:46;;;;;;;6.57;4.20;;;;;;;11.14;100.00;102037.38;5090373;28;20028;-87
2022/07/23 02:34:11;;;;;;;9.10;3.78;;;;;;;11.13;100.00;102039.22;5091879;28;20334;-87
2022/07/23 02:36:38;;;;;;;6.15;3.53;;;;;;;11.12;100.00;102040.16;5091717;28;20032;-88
2022/07/23 02:39:03;;;;;;;4.07;3.60;;;;;;;11.10;100.00;102031.44;5092763;28;20032;-71
2022/07/23 02:41:29;;;;;;;5.63;3.60;;;;;;;11.08;100.00;102034.22;5093597;28;20035;-71
2022/07/23 02:43:54;;;;;;;4.10;3.28;;;;;;;11.05;100.00;102037.13;5093678;28;20036;-72
2022/07/23 02:46:19;;;;;;;6.38;3.20;;;;;;;11.09;100.00;102045.72;5092430;28;20040;-71
2022/07/23 02:48:45;;;;;;;5.40;3.47;;;;;;;11.08;100.00;102036.88;5093393;28;20125;-71
2022/07/23 02:51:10;;;;;;;4.50;3.33;;;;;;;11.12;100.00;102040.16;5093372;28;20388;-72
2022/07/23 02:53:35;;;;;;;5.18;3.22;;;;;;;11.13;100.00;102041.03;5093242;28;20032;-72
2022/07/23 02:56:01;;;;;;;5.65;3.20;;;;;;;11.18;100.00;102036.19;5093235;28;20374;-72
2022/07/23 02:58:26;;;;;;;4.43;3.10;;;;;;;11.20;100.00;102034.28;5093125;28;20116;-71
2022/07/23 03:00:53;;;;;;;11.63;4.95;;;;;;;11.22;100.00;102035.84;5093041;28;20135;-70
2022/07/23 03:03:18;;;;;;;5.75;2.97;;;;;;;11.25;100.00;102037.44;5092903;28;20032;-70
2022/07/23 03:05:43;;;;;;;7.70;3.30;;;;;;;11.24;100.00;102041.94;5092951;28;20032;-71
2022/07/23 03:08:09;;;;;;;8.57;3.83;;;;;;;11.20;100.00;102039.63;5092956;28;20486;-71
2022/07/23 03:10:34;;;;;;;6.05;3.30;;;;;;;11.16;100.00;102040.81;5091802;28;20462;-71
2022/07/23 03:12:59;;;;;;;9.48;3.58;;;;;;;11.09;100.00;102037.72;5093663;28;20048;-70
2022/07/23 03:15:25;;;;;;;3.53;2.78;;;;;;;11.04;100.00;102035.41;5093256;28;20035;-71
2022/07/23 03:17:50;;;;;;;5.82;3.13;;;;;;;11.00;100.00;102041.94;5093365;28;20070;-70
2022/07/23 03:20:15;;;;;;;3.45;2.97;;;;;;;10.97;100.00;102044.81;5093095;28;20054;-71
2022/07/23 03:22:41;;;;;;;3.38;2.90;;;;;;;10.93;100.00;102043.34;5093359;28;20085;-71
2022/07/23 03:25:07;;;;;;;5.57;3.38;;;;;;;10.89;100.00;102048.03;5092685;28;20027;-71
2022/07/23 03:27:32;;;;;;;4.63;2.70;;;;;;;10.86;100.00;102045.59;5092877;28;20120;-72
2022/07/23 03:29:59;;;;;;;7.65;3.38;;;;;;;10.84;100.00;102049.31;5092948;28;20114;-71
2022/07/23 03:32:25;;;;;;;8.23;3.47;;;;;;;10.83;100.00;102051.16;5093192;28;20106;-71
2022/07/23 03:34:51;;;;;;;6.85;3.67;;;;;;;10.82;100.00;102049.44;5093407;28;20034;-70
2022/07/23 03:37:17;;;;;;;4.47;2.80;;;;;;;10.77;100.00;102043.59;5093293;28;20032;-71
2022/07/23 03:39:43;;;;;;;6.57;3.53;;;;;;;10.75;100.00;102053.53;5092908;28;20035;-71
2022/07/23 03:42:08;;;;;;;5.68;3.50;;;;;;;10.76;100.00;102049.88;5095073;28;20032;-71
2022/07/23 03:44:34;;;;;;;8.13;3.05;;;;;;;10.75;100.00;102061.50;5096448;28;20032;-71
2022/07/23 03:46:59;;;;;;;5.97;3.10;;;;;;;10.71;100.00;102060.03;5096856;28;20036;-71
2022/07/23 03:49:25;;;;;;;6.22;3.63;;;;;;;10.70;100.00;102064.50;5096790;28;20179;-71
2022/07/23 03:51:51;;;;;;;6.05;3.70;;;;;;;10.74;100.00;102060.63;5096619;28;20108;-71
2022/07/23 03:54:16;;;;;;;5.93;3.80;;;;;;;10.75;100.00;102074.81;5096681;28;20032;-71
2022/07/23 03:56:42;;;;;;;6.53;3.25;;;;;;;10.72;100.00;102077.72;5096960;28;20137;-71
2022/07/23 03:59:08;;;;;;;4.90;3.40;;;;;;;10.76;100.00;102068.50;5096502;28;20020;-70
2022/07/23 04:01:33;;;;;;;3.25;2.95;;;;;;;10.75;100.00;102075.66;5096588;28;20119;-71
2022/07/23 04:03:59;;;;;;;3.88;2.95;;;;;;;10.76;100.00;102073.84;5096402;28;20024;-71
2022/07/23 04:06:24;;;;;;;6.50;3.92;;;;;;;10.78;100.00;102074.59;5096104;28;20397;-71
2022/07/23 04:08:50;;;;;;;5.13;3.55;;;;;;;10.85;100.00;102070.53;5096623;28;20035;-71
2022/07/23 04:11:15;;;;;;;8.52;3.92;;;;;;;10.92;100.00;102084.25;5095120;28;20055;-71
2022/07/23 04:13:40;;;;;;;5.57;3.65;;;;;;;10.96;100.00;102083.06;5096027;28;20102;-71
2022/07/23 04:16:06;;;;;;;9.77;3.63;;;;;;;11.00;100.00;102081.03;5096301;28;20048;-71
2022/07/23 04:18:31;;;;;;;6.28;3.35;;;;;;;11.08;100.00;102065.34;5094852;28;20063;-71
2022/07/23 04:20:57;;;;;;;5.32;3.80;;;;;;;11.20;100.00;102076.91;5095907;28;20051;-71
2022/07/23 04:23:22;;;;;;;6.95;3.95;;;;;;;11.28;100.00;102077.19;5095812;28;20036;-71
2022/07/23 04:25:47;;;;;;;6.93;3.92;;;;;;;11.34;100.00;102066.06;5095683;28;20405;-71
2022/07/23 04:28:13;;;;;;;7.55;3.72;;;;;;;11.40;100.00;102078.09;5096363;28;20028;-71
2022/07/23 04:30:38;;;;;;;5.65;3.55;;;;;;;11.43;100.00;102072.53;5096076;28;20363;-71
2022/07/23 04:33:06;;;;;;;5.57;3.72;;;;;;;11.48;100.00;102070.38;5095885;28;20043;-71
2022/07/23 04:35:33;;;;;;;6.53;3.33;;;;;;;11.49;100.00;102071.22;5096231;28;20081;-72
2022/07/23 04:37:59;;;;;;;5.47;3.08;;;;;;;11.46;100.00;102070.50;5096116;28;20158;-71
2022/07/23 04:40:24;;;;;;;6.13;3.40;;;;;;;11.44;100.00;102064.44;5094747;28;20119;-71
2022/07/23 04:42:49;;;;;;;10.15;3.72;;;;;;;11.42;100.00;102071.69;5095476;28;20039;-71
2022/07/23 04:45:15;;;;;;;6.65;3.75;;;;;;;11.43;100.00;102069.88;5095839;28;20032;-71
2022/07/23 04:47:40;;;;;;;7.45;3.85;;;;;;;11.40;100.00;102070.94;5095429;28;20039;-70
2022/07/23 04:50:06;;;;;;;3.97;3.20;;;;;;;11.39;100.00;102071.06;5095906;28;20028;-71
2022/07/23 04:52:31;;;;;;;6.60;4.13;;;;;;;11.36;100.00;102068.63;5094018;28;20070;-71
2022/07/23 04:54:56;;;;;;;4.80;3.38;;;;;;;11.35;100.00;102062.44;5094772;28;20157;-71
2022/07/23 04:57:22;;;;;;;7.53;4.05;;;;;;;11.39;100.00;102071.94;5095483;28;20113;-71
2022/07/23 04:59:47;;;;;;;6.55;4.07;;;;;;;11.42;100.00;102073.50;5095487;28;20388;-71
2022/07/23 05:02:12;;;;;;;9.07;4.00;;;;;;;11.46;100.00;102078.50;5094730;28;20036;-70
2022/07/23 05:04:38;;;;;;;6.22;3.67;;;;;;;11.50;100.00;102075.59;5095326;28;20461;-71
2022/07/23 05:07:04;;;;;;;6.55;4.30;;;;;;;11.54;100.00;102077.94;5095645;28;20028;-71
2022/07/23 05:09:29;;;;;;;6.40;4.10;;;;;;;11.59;100.00;102077.56;5095376;28;20445;-71
2022/07/23 05:11:54;;;;;;;6.13;4.07;;;;;;;11.62;100.00;102080.00;5095826;28;20485;-70
2022/07/23 05:14:20;;;;;;;7.85;4.70;;;;;;;11.65;100.00;102080.63;5095020;28;20043;-71
2022/07/23 05:16:45;;;;;;;6.63;5.25;;;;;;;11.71;100.00;102070.47;5094121;28;20358;-72
2022/07/23 05:19:10;;;;;;;9.60;5.53;;;;;;;11.75;100.00;102072.78;5095369;28;20056;-71
2022/07/23 05:21:36;;;;;;;7.22;4.35;;;;;;;11.83;100.00;102078.38;5094985;28;20047;-71
2022/07/23 05:24:01;;;;;;;4.60;4.05;;;;;;;11.91;100.00;102082.25;5095307;28;20123;-71
2022/07/23 05:26:27;;;;;;;7.03;4.43;;;;;;;11.99;100.00;102080.75;5095626;28;20507;-71
2022/07/23 05:28:52;;;;;;;8.85;5.00;;;;;;;12.08;100.00;102081.84;5094880;28;20028;-72
2022/07/23 05:31:17;;;;;;;7.35;4.97;;;;;;;12.17;100.00;102094.47;5094734;28;20085;-71
2022/07/23 05:33:43;;;;;;;8.27;4.70;;;;;;;12.26;100.00;102084.91;5094880;28;20389;-71
2022/07/23 05:36:09;;;;;;;6.60;4.82;;;;;;;12.35;100.00;102089.53;5094787;28;20028;-71
2022/07/23 05:38:34;;;;;;;8.88;5.15;;;;;;;12.44;100.00;102095.97;5095575;28;20361;-71
2022/07/23 05:41:00;;;;;;;11.63;5.50;;;;;;;12.52;100.00;102087.34;5094577;28;20131;-72
2022/07/23 05:43:26;;;;;;;6.78;4.47;;;;;;;12.62;100.00;102088.31;5094625;28;20025;-71
2022/07/23 05:45:51;;;;;;;5.68;3.90;;;;;;;12.72;100.00;102082.25;5094900;28;20068;-71
2022/07/23 05:48:17;;;;;;;4.72;3.42;;;;;;;12.86;100.00;102096.19;5094874;28;20058;-71
2022/07/23 05:50:42;;;;;;;4.45;3.47;;;;;;;13.04;100.00;102098.34;5095106;28;20039;-72
2022/07/23 05:53:07;;;;;;;8.70;3.38;;;;;;;13.23;100.00;102095.03;5094538;28;20036;-72
2022/07/23 05:55:33;;;;;;;3.03;2.70;;;;;;;13.41;100.00;102095.38;5094185;28;20061;-72
2022/07/23 05:57:59;;;;;;;4.05;2.58;;;;;;;13.48;100.00;102095.69;5094469;28;20035;-72
2022/07/23 06:00:26;;;;;;;7.47;2.67;;;;;;;13.58;100.00;102091.28;5094443;28;20036;-72
2022/07/23 06:02:52;;;;;;;4.43;2.50;;;;;;;13.68;100.00;102088.69;5093957;28;20024;-72
2022/07/23 06:05:17;;;;;;;3.95;2.30;;;;;;;13.75;100.00;102084.53;5094504;28;20120;-71
2022/07/23 06:07:43;;;;;;;5.55;2.90;;;;;;;13.82;100.00;102091.03;5094950;28;20040;-71
2022/07/23 06:10:08;;;;;;;5.30;3.10;;;;;;;13.89;100.00;102096.72;5093234;28;20027;-70
2022/07/23 06:12:34;;;;;;;7.65;3.00;;;;;;;14.00;100.00;102096.69;5093897;28;20048;-73
2022/07/23 06:15:00;;;;;;;7.68;2.80;;;;;;;14.16;100.00;102109.56;5094593;28;20037;-72
2022/07/23 06:17:26;;;;;;;7.25;2.65;;;;;;;14.31;100.00;102109.25;5094138;28;20497;-73
2022/07/23 06:19:52;;;;;;;7.10;2.78;;;;;;;14.51;100.00;102112.84;5094067;28;20047;-70
2022/07/23 06:22:17;;;;;;;8.43;4.07;;;;;;;14.64;100.00;102086.72;5094139;28;20032;-70
2022/07/23 06:24:42;;;;;;;7.82;2.95;;;;;;;14.81;100.00;102088.75;5093772;28;20137;-72
2022/07/23 06:27:08;;;;;;;6.10;2.45;;;;;;;14.96;100.00;102083.03;5093879;28;20040;-72
2022/07/23 06:29:33;;;;;;;4.45;2.35;;;;;;;15.07;98.10;102079.38;5092282;28;20039;-72
2022/07/23 06:31:58;;;;;;;5.18;2.30;;;;;;;15.22;98.35;102086.00;5093965;28;20064;-73
2022/07/23 06:34:24;;;;;;;3.75;2.20;;;;;;;15.34;96.27;102090.25;5093771;28;20032;-72
2022/07/23 06:36:49;;;;;;;5.03;2.22;;;;;;;15.46;94.64;102090.13;5092488;28;20381;-71
2022/07/23 06:39:15;;;;;;;8.38;2.42;;;;;;;15.52;89.90;102098.47;5093606;28;20462;-72
2022/07/23 06:41:40;;;;;;;3.17;1.80;;;;;;;15.70;91.50;102097.75;5093642;28;20058;-72
2022/07/23 06:44:06;;;;;;;4.53;2.08;;;;;;;15.83;90.40;102092.97;5093594;28;20546;-72
2022/07/23 06:46:31;;;;;;;6.05;1.83;;;;;;;15.89;89.45;102091.56;5093848;28;20032;-72
2022/07/23 06:48:57;;;;;;;7.63;2.05;;;;;;;16.06;91.51;102095.31;5093600;28;20358;-73
2022/07/23 06:51:22;;;;;;;3.53;1.92;;;;;;;16.23;88.79;102091.06;5093692;28;20036;-71
2022/07/23 06:53:47;;;;;;;3.35;1.38;;;;;;;16.39;87.61;102091.28;5093478;28;20109;-71
2022/07/23 06:56:13;;;;;;;6.18;1.85;;;;;;;16.54;85.46;102093.47;5093069;28;20036;-71
2022/07/23 06:58:38;;;;;;;3.00;1.80;;;;;;;16.59;83.06;102098.44;5093299;28;20036;-71
2022/07/23 07:01:03;;;;;;;4.05;2.00;;;;;;;16.59;83.75;102098.44;5093516;28;20111;-71
2022/07/23 07:03:29;;;;;;;4.38;1.75;;;;;;;16.75;83.63;102104.84;5094008;28;20028;-72
2022/07/23 07:05:57;;;;;;;4.75;1.60;;;;;;;16.94;83.92;102107.59;5093836;28;20439;-73
2022/07/23 07:08:22;;;;;;;5.72;1.42;;;;;;;17.05;81.85;102115.47;5093130;28;20060;-72
2022/07/23 07:10:48;;;;;;;5.75;1.50;;;;;;;17.07;81.31;102116.16;5093087;28;20074;-72
2022/07/23 07:13:13;;;;;;;5.72;1.83;;;;;;;17.10;81.42;102110.47;5093456;28;20122;-72
2022/07/23 07:15:39;;;;;;;5.63;1.77;;;;;;;17.15;80.33;102118.09;5093799;28;20039;-71
2022/07/23 07:18:04;;;;;;;6.65;1.83;;;;;;;17.28;80.33;102119.41;5092763;28;20474;-72
2022/07/23 07:20:29;;;;;;;3.88;1.80;;;;;;;17.49;79.60;102114.75;5093323;28;20028;-71
2022/07/23 07:22:55;;;;;;;4.72;1.80;;;;;;;17.70;78.69;102106.34;5091853;28;20109;-73
2022/07/23 07:25:20;;;;;;;4.82;1.90;;;;;;;17.84;77.36;102118.41;5093091;28;20039;-72
2022/07/23 07:27:45;;;;;;;7.10;1.88;;;;;;;18.01;77.92;102120.25;5093174;28;20054;-72
2022/07/23 07:30:12;;;;;;;4.28;2.10;;;;;;;18.18;76.75;102126.59;5093331;28;20036;-72
2022/07/23 07:32:37;;;;;;;12.15;1.85;;;;;;;18.25;75.46;102124.97;5092973;28;20036;-73
2022/07/23 07:35:04;;;;;;;4.47;1.70;;;;;;;18.55;74.54;102121.94;5092781;28;20393;-75
2022/07/23 07:37:29;;;;;;;2.95;1.65;;;;;;;18.83;72.89;102136.06;5093182;28;20028;-74
2022/07/23 07:39:55;;;;;;;3.40;1.58;;;;;;;19.03;71.93;102134.81;5093104;28;20028;-74
2022/07/23 07:42:20;;;;;;;5.78;1.90;;;;;;;19.08;70.98;102126.22;5092982;28;20035;-73
2022/07/23 07:44:45;;;;;;;6.30;2.10;;;;;;;19.17;68.59;102130.63;5091759;28;20089;-73
2022/07/23 07:47:15;;;;;;;3.80;2.03;;;;;;;19.25;70.55;102134.38;5092968;28;20077;-74
2022/07/23 07:49:41;;;;;;;4.65;2.20;;;;;;;19.40;70.50;102129.16;5093710;28;20035;-75
2022/07/23 07:52:07;;;;;;;5.13;1.67;;;;;;;19.52;68.52;102131.34;5093027;28;20366;-75
2022/07/23 07:54:32;;;;;;;8.23;2.00;;;;;;;19.63;70.48;102132.91;5092664;28;20035;-75
2022/07/23 07:56:58;;;;;;;5.25;2.10;;;;;;;19.54;65.80;102137.47;5093085;28;20536;-88
2022/07/23 07:59:23;;;;;;;2.75;2.17;;;;;;;19.51;68.48;102139.63;5091879;28;20090;-85
2022/07/23 08:01:49;;;;;;;3.78;2.20;;;;;;;19.55;69.29;102136.41;5092948;28;20488;-82
2022/07/23 08:04:14;;;;;;;6.03;2.33;;;;;;;19.73;70.13;102139.00;5091107;28;20032;-82
2022/07/23 08:06:40;;;;;;;7.05;2.30;;;;;;;19.69;66.16;102144.88;5093292;28;20116;-83
2022/07/23 08:09:05;;;;;;;3.92;2.15;;;;;;;19.74;66.59;102140.66;5075636;28;20028;-82
2022/07/23 08:11:30;;;;;;;6.20;2.08;;;;;;;19.89;66.65;102140.03;5092758;28;20477;-79
2022/07/23 08:13:56;;;;;;;2.90;1.70;;;;;;;20.07;67.60;102147.94;5091705;28;20479;-80
2022/07/23 08:16:21;;;;;;;4.10;2.40;;;;;;;20.10;66.28;102152.19;5092719;28;20353;-81
2022/07/23 08:18:47;;;;;;;2.85;2.20;;;;;;;20.27;68.62;102145.72;5093211;28;20427;-81
2022/07/23 08:21:12;;;;;;;8.48;2.42;;;;;;;20.18;64.33;102150.31;5092896;28;20462;-80
2022/07/23 08:23:38;;;;;;;6.28;2.22;;;;;;;20.37;67.88;102146.38;5093007;28;20359;-84
2022/07/23 08:26:03;;;;;;;3.47;1.85;;;;;;;20.49;63.54;102148.72;5092043;28;20039;-82
2022/07/23 08:28:32;;;;;;;3.58;2.20;;;;;;;20.73;65.16;102159.47;5093897;28;20032;-84
2022/07/23 08:30:58;;;;;;;4.70;2.20;;;;;;;20.93;62.66;102149.09;5096405;28;20039;-82
2022/07/23 08:33:23;;;;;;;6.65;2.70;;;;;;;21.26;60.74;102142.69;5096343;28;20032;-83
2022/07/23 08:35:52;;;;;;;10.73;2.30;;;;;;;21.38;59.75;102148.50;5096215;28;20047;-83
2022/07/23 08:38:19;;;;;;;5.38;2.10;;;;;;;21.63;59.17;102143.78;5096484;28;20546;-83
2022/07/23 08:40:51;;;;;;;4.38;2.00;;;;;;;21.99;57.37;102141.31;5095900;28;20467;-82
2022/07/23 08:43:23;;;;;;;4.68;1.98;;;;;;;22.31;56.64;102147.44;5095883;28;20077;-82
2022/07/23 08:45:50;;;;;;;4.45;1.50;;;;;;;22.61;55.21;102149.34;5095841;28;20461;-83
2022/07/23 08:48:18;;;;;;;7.60;2.10;;;;;;;23.13;54.95;102147.53;5095266;28;20138;-82
2022/07/23 08:50:49;;;;;;;5.45;2.15;;;;;;;23.38;52.19;102151.56;5094689;28;20032;-86
2022/07/23 08:53:15;;;;;;;3.25;2.00;;;;;;;23.77;52.65;102157.59;5094557;28;20059;-81
2022/07/23 08:55:44;;;;;;;3.63;1.80;;;;;;;24.06;50.75;102158.47;5095394;28;20036;-81
2022/07/23 08:58:09;;;;;;;6.45;2.35;;;;;;;24.33;47.70;102156.78;5094401;28;20115;-81
2022/07/23 09:00:35;;;;;;;5.15;2.00;;;;;;;24.14;48.22;102157.50;5095959;28;20059;-81
2022/07/23 09:03:00;;;;;;;8.38;2.22;;;;;;;24.68;48.99;102161.41;5094556;28;20094;-80
2022/07/23 09:05:26;;;;;;;3.55;1.95;;;;;;;25.11;46.93;102158.47;5095430;28;20053;-80
2022/07/23 09:08:08;;;;;;;3.45;1.75;;;;;;;25.81;46.74;102156.34;5095413;28;20462;-83
2022/07/23 09:11:03;;;;;;;3.25;2.00;;;;;;;26.05;43.18;102162.25;5094168;28;20024;-82
2022/07/23 09:13:36;;;;;;;5.68;2.30;;;;;;;26.48;41.45;102156.28;5095538;28;20043;-81
2022/07/23 09:16:07;;;;;;;3.60;2.30;;;;;;;26.56;41.15;102158.78;5096022;28;20024;-81
2022/07/23 09:18:35;;;;;;;5.25;1.52;;;;;;;27.56;40.59;102156.69;5095383;28;20126;-81
2022/07/23 09:21:08;;;;;;;4.97;2.20;;;;;;;27.36;37.76;102145.88;5093607;28;20114;-81
2022/07/23 09:23:45;;;;;;;4.13;1.90;;;;;;;26.57;40.70;102154.16;5094990;28;20036;-81
2022/07/23 09:26:25;;;;;;;6.07;1.95;;;;;;;26.33;41.50;102148.34;5095188;28;20119;-83
2022/07/23 09:29:13;;;;;;;4.03;2.00;;;;;;;26.51;43.26;102149.56;5095332;28;20070;-82
2022/07/23 09:31:59;;;;;;;3.38;1.92;;;;;;;27.02;40.18;102147.91;5091192;28;20044;-82
2022/07/23 09:34:30;;;;;;;2.67;1.80;;;;;;;28.46;38.60;102145.34;5095511;28;20119;-86
2022/07/23 09:37:10;;;;;;;10.80;1.98;;;;;;;29.29;35.98;102150.47;5095672;28;20054;-82
2022/07/23 09:39:36;;;;;;;3.03;1.73;;;;;;;29.30;35.17;102152.16;5095065;28;20036;-80
2022/07/23 09:42:17;;;;;;;2.92;1.92;;;;;;;29.29;35.42;102151.31;5095004;28;20296;-81
2022/07/23 09:44:44;;;;;;;7.88;1.75;;;;;;;29.69;36.20;102152.59;5094831;28;20032;-83
2022/07/23 09:47:10;;;;;;;4.70;2.00;;;;;;;30.22;33.96;102150.88;5094728;28;20028;-81
2022/07/23 09:49:35;;;;;;;3.63;1.85;;;;;;;29.73;34.29;102154.63;5093464;28;20031;-82
2022/07/23 09:52:02;;;;;;;5.32;2.00;;;;;;;29.20;34.45;102149.91;5076661;28;20036;-81
2022/07/23 09:54:39;;;;;;;7.00;2.08;;;;;;;28.96;36.83;102154.47;5094694;28;20097;-86
2022/07/23 09:57:16;;;;;;;4.40;1.88;;;;;;;28.27;36.80;102160.09;5076598;28;20031;-81
2022/07/23 09:59:43;;;;;;;3.38;1.77;;;;;;;28.52;35.38;102153.75;5094438;28;20087;-81
2022/07/23 10:02:12;;;;;;;5.07;1.83;;;;;;;29.18;34.63;102152.06;5094350;28;20032;-81
2022/07/23 10:04:38;;;;;;;3.92;1.75;;;;;;;30.31;33.68;102160.41;5094320;28;20031;-82
2022/07/23 10:07:06;;;;;;;5.03;1.65;;;;;;;30.76;33.07;102151.50;5094500;28;20101;-84
2022/07/23 10:09:37;;;;;;;4.65;1.67;;;;;;;30.80;31.01;102154.63;5094348;28;20059;-82
2022/07/23 10:14:34;;;;;;;4.07;1.45;;;;;;;29.37;33.84;102158.38;5094336;28;20043;-73
2022/07/23 10:17:03;;;;;;;4.80;1.70;;;;;;;29.45;36.03;102154.47;5094853;28;20028;-73
2022/07/23 10:19:30;;;;;;;3.42;1.42;;;;;;;30.24;33.40;102151.47;5094100;28;20028;-73
2022/07/23 10:22:00;;;;;;;3.90;1.55;;;;;;;30.67;34.67;102147.47;5094255;28;20023;-74
2022/07/23 10:24:29;;;;;;;4.63;1.80;;;;;;;30.59;32.50;102148.69;5093200;28;20073;-73
2022/07/23 10:27:08;;;;;;;5.13;1.70;;;;;;;30.40;33.29;102147.16;5093227;28;20024;-73
2022/07/23 10:29:49;;;;;;;2.38;1.42;;;;;;;29.94;35.21;102144.19;5094147;28;20054;-81
2022/07/23 10:32:35;;;;;;;4.18;1.33;;;;;;;30.80;32.14;102142.78;5094404;28;20028;-78
2022/07/23 10:35:13;;;;;;;3.88;1.50;;;;;;;31.32;31.48;102144.59;5094470;28;20024;-80
2022/07/23 10:37:43;;;;;;;4.32;1.40;;;;;;;31.81;31.17;102148.53;5094394;28;20029;-79
2022/07/23 10:40:22;;;;;;;5.47;1.60;;;;;;;31.64;30.00;102144.94;5094045;28;20421;-79
2022/07/23 10:42:51;;;;;;;3.92;1.40;;;;;;;31.30;33.49;102131.13;5093825;28;20419;-76
2022/07/23 10:45:27;;;;;;;5.97;1.42;;;;;;;30.65;33.19;102132.31;5093802;28;20051;-79
2022/07/23 10:47:53;;;;;;;3.97;2.00;;;;;;;30.11;35.48;102140.72;5094042;28;20032;-79
2022/07/23 10:50:34;;;;;;;4.43;2.33;;;;;;;30.04;33.55;102136.19;5094135;28;20070;-80
2022/07/23 10:53:06;;;;;;;3.83;1.50;;;;;;;30.42;34.09;102134.03;5093485;28;20036;-80
2022/07/23 10:55:31;;;;;;;6.80;1.52;;;;;;;30.64;33.57;102131.50;5093754;28;20024;-79
2022/07/23 10:57:57;;;;;;;3.20;1.40;;;;;;;30.82;32.92;102130.47;5092045;28;20027;-80
2022/07/23 11:00:25;;;;;;;4.25;1.60;;;;;;;31.18;33.23;102127.59;5093293;28;20030;-81
2022/07/23 11:02:53;;;;;;;5.43;1.70;;;;;;;31.23;31.96;102134.03;5093692;28;20020;-82
2022/07/23 11:05:21;;;;;;;3.15;1.70;;;;;;;31.64;30.70;102134.75;5093628;28;20054;-81
2022/07/23 11:08:07;;;;;;;2.28;1.60;;;;;;;31.45;29.40;102127.81;5092433;28;20047;-81
2022/07/23 11:10:39;;;;;;;2.97;1.60;;;;;;;31.54;30.12;102128.22;5093079;28;20558;-81
2022/07/23 11:13:23;;;;;;;3.30;1.60;;;;;;;31.20;33.22;102129.03;5091721;28;20040;-72
2022/07/23 11:16:01;;;;;;;6.38;1.85;;;;;;;31.68;32.54;102126.84;5092623;28;20024;-76
2022/07/23 11:18:44;;;;;;;6.68;1.85;;;;;;;31.99;31.19;102130.91;5093355;28;20028;-76
2022/07/23 11:21:36;;;;;;;6.03;1.60;;;;;;;32.03;32.58;102131.22;5093178;28;20031;-77